Time;durP1;ratioP1;P1;durP2;ratioP2;P2;SDS_P1;SDS_P2;PMS_P1;PMS_P2;Temp;Humidity;BMP_temperature;BMP_pressure;BME280_temperature;BME280_humidity;BME280_pressure;Samples;Min_cycle;Max_cycle;Signal;HPM_P1;HPM_P2
2023/11/17 00:02:35;;;;;;;0.55;0.50;;;3.50;99.90;;;;;;4402350;32;20062;-61
2023/11/17 00:05:01;;;;;;;0.40;0.40;;;3.40;99.90;;;;;;4399032;32;20506;-61
2023/11/17 00:07:28;;;;;;;0.47;0.47;;;3.40;99.90;;;;;;4402630;32;20480;-59
2023/11/17 00:09:55;;;;;;;0.30;0.30;;;3.50;99.90;;;;;;4403617;32;20057;-61
2023/11/17 00:12:20;;;;;;;0.40;0.40;;;3.40;99.90;;;;;;4402689;32;20211;-60
2023/11/17 00:14:45;;;;;;;0.55;0.55;;;3.40;99.90;;;;;;4404133;32;20137;-59
2023/11/17 00:17:11;;;;;;;0.30;0.30;;;3.40;99.90;;;;;;4401650;32;20165;-59
2023/11/17 00:19:37;;;;;;;0.40;0.40;;;3.40;99.90;;;;;;4403629;32;20069;-58
2023/11/17 00:22:03;;;;;;;0.43;0.43;;;3.40;99.90;;;;;;4401996;32;20188;-58
2023/11/17 00:24:28;;;;;;;0.30;0.30;;;3.40;99.90;;;;;;4403250;32;20136;-58
2023/11/17 00:26:54;;;;;;;0.30;0.30;;;3.40;99.90;;;;;;4400723;32;20077;-60
2023/11/17 00:29:19;;;;;;;0.40;0.40;;;3.50;99.90;;;;;;4402195;32;20090;-58
2023/11/17 00:31:45;;;;;;;0.35;0.35;;;3.60;99.90;;;;;;4400759;32;20442;-59
2023/11/17 00:34:10;;;;;;;0.30;0.30;;;3.60;99.90;;;;;;4400857;32;20090;-61
2023/11/17 00:36:36;;;;;;;0.75;0.62;;;3.60;99.90;;;;;;4401300;32;20077;-60
2023/11/17 00:39:02;;;;;;;0.30;0.30;;;3.70;99.90;;;;;;4400693;32;20070;-59
2023/11/17 00:41:28;;;;;;;0.73;0.73;;;3.60;99.90;;;;;;4401943;32;20081;-61
2023/11/17 00:43:54;;;;;;;0.40;0.40;;;3.80;99.90;;;;;;4400008;32;20073;-60
2023/11/17 00:46:19;;;;;;;0.20;0.20;;;3.80;99.90;;;;;;4402078;32;20077;-59
2023/11/17 00:48:45;;;;;;;0.22;0.22;;;3.70;99.90;;;;;;4400159;32;20054;-58
2023/11/17 00:51:11;;;;;;;0.50;0.50;;;3.80;99.90;;;;;;4402411;32;20090;-60
2023/11/17 00:53:36;;;;;;;0.47;0.47;;;3.90;99.90;;;;;;4400630;32;20086;-59
2023/11/17 00:56:04;;;;;;;1.08;0.90;;;3.90;99.90;;;;;;4400882;32;20065;-58
2023/11/17 00:58:30;;;;;;;3.40;1.65;;;3.90;99.90;;;;;;4399760;32;20588;-60
2023/11/17 01:00:57;;;;;;;0.30;0.30;;;4.00;99.90;;;;;;4398562;32;20086;-61
2023/11/17 01:03:23;;;;;;;0.30;0.30;;;4.00;99.90;;;;;;4397781;32;21136;-61
2023/11/17 01:05:49;;;;;;;0.47;0.47;;;4.00;99.90;;;;;;4400461;32;20089;-60
2023/11/17 01:08:14;;;;;;;0.37;0.37;;;4.00;99.90;;;;;;4400412;32;20751;-60
2023/11/17 01:10:40;;;;;;;0.40;0.40;;;4.10;99.90;;;;;;4399327;32;20369;-59
2023/11/17 01:13:06;;;;;;;0.30;0.30;;;4.10;99.90;;;;;;4399822;32;20070;-60
2023/11/17 01:15:34;;;;;;;0.30;0.30;;;4.10;99.90;;;;;;4401095;32;20165;-59
2023/11/17 01:18:01;;;;;;;0.75;0.70;;;4.10;99.90;;;;;;4397323;32;20066;-61
2023/11/17 01:20:29;;;;;;;0.50;0.50;;;4.10;99.90;;;;;;4396969;32;20089;-61
2023/11/17 01:22:54;;;;;;;0.60;0.60;;;4.10;99.90;;;;;;4398966;32;20415;-60
2023/11/17 01:25:20;;;;;;;0.55;0.52;;;4.10;99.90;;;;;;4401391;32;20093;-59
2023/11/17 01:27:46;;;;;;;0.40;0.40;;;4.00;99.90;;;;;;4403030;32;20069;-59
2023/11/17 01:30:12;;;;;;;0.22;0.22;;;4.10;99.90;;;;;;4398718;32;20194;-60
2023/11/17 01:32:38;;;;;;;0.30;0.30;;;4.10;99.90;;;;;;4401530;32;20078;-59
2023/11/17 01:35:03;;;;;;;0.40;0.40;;;4.10;99.90;;;;;;4400740;32;20081;-59
2023/11/17 01:37:29;;;;;;;0.50;0.50;;;4.20;99.90;;;;;;4398925;32;20090;-62
2023/11/17 01:39:54;;;;;;;0.45;0.45;;;4.20;99.90;;;;;;4399158;32;20436;-61
2023/11/17 01:42:21;;;;;;;0.43;0.43;;;4.10;99.90;;;;;;4399979;32;20129;-61
2023/11/17 01:44:47;;;;;;;0.30;0.30;;;4.10;99.90;;;;;;4397816;32;20525;-60
2023/11/17 01:47:13;;;;;;;0.30;0.30;;;4.10;99.90;;;;;;4399762;32;20157;-60
2023/11/17 01:49:41;;;;;;;0.30;0.30;;;4.10;99.90;;;;;;4397419;32;20086;-60
2023/11/17 01:52:07;;;;;;;0.30;0.30;;;4.10;99.90;;;;;;4402515;32;20074;-61
2023/11/17 01:54:35;;;;;;;0.40;0.40;;;4.20;99.90;;;;;;4401065;32;20102;-61
2023/11/17 01:57:01;;;;;;;0.40;0.40;;;4.20;99.90;;;;;;4402612;32;20470;-61
2023/11/17 01:59:27;;;;;;;0.37;0.37;;;4.20;99.90;;;;;;4403267;32;20177;-61
2023/11/17 02:01:52;;;;;;;0.32;0.32;;;4.20;99.90;;;;;;4401445;32;20117;-60
2023/11/17 02:04:18;;;;;;;0.35;0.35;;;4.30;99.90;;;;;;4405817;32;20078;-59
2023/11/17 02:07:12;;;;;;;0.30;0.30;;;4.30;99.90;;;;;;4404555;32;20073;-59
2023/11/17 02:09:50;;;;;;;0.40;0.40;;;4.20;99.90;;;;;;4399759;32;20682;-59
2023/11/17 02:12:46;;;;;;;0.37;0.37;;;4.20;99.90;;;;;;4400793;32;20062;-59
2023/11/17 02:15:14;;;;;;;0.30;0.30;;;4.20;99.90;;;;;;4399013;32;20513;-59
2023/11/17 02:17:42;;;;;;;0.50;0.50;;;4.20;99.90;;;;;;4405010;32;20826;-60
2023/11/17 02:20:11;;;;;;;0.30;0.30;;;4.20;99.90;;;;;;4402968;32;20085;-60
2023/11/17 02:22:44;;;;;;;0.30;0.30;;;4.20;99.90;;;;;;4398359;32;20570;-59
2023/11/17 02:25:15;;;;;;;0.20;0.20;;;4.20;99.90;;;;;;4401382;32;20521;-59
2023/11/17 02:27:59;;;;;;;0.30;0.30;;;4.20;99.90;;;;;;4401233;32;20407;-60
2023/11/17 02:30:28;;;;;;;0.40;0.40;;;4.30;99.90;;;;;;4400005;32;20148;-60
2023/11/17 02:32:55;;;;;;;0.30;0.30;;;4.30;99.90;;;;;;4404010;32;20082;-59
2023/11/17 02:35:28;;;;;;;0.30;0.30;;;4.30;99.90;;;;;;4400497;32;20089;-59
2023/11/17 02:37:57;;;;;;;0.40;0.40;;;4.40;99.90;;;;;;4403773;32;20062;-60
2023/11/17 02:40:23;;;;;;;0.20;0.20;;;4.40;99.90;;;;;;4401759;32;20451;-59
2023/11/17 02:42:51;;;;;;;1.12;1.02;;;4.50;99.90;;;;;;4401871;32;20090;-60
2023/11/17 02:45:20;;;;;;;0.40;0.40;;;4.40;99.90;;;;;;4403786;32;20140;-59
2023/11/17 02:47:48;;;;;;;0.30;0.30;;;4.30;99.90;;;;;;4388372;32;20066;-61
2023/11/17 02:50:18;;;;;;;1.52;0.62;;;4.30;99.90;;;;;;4399002;32;20077;-59
2023/11/17 02:53:10;;;;;;;0.30;0.30;;;4.30;99.90;;;;;;4400278;32;20095;-60
2023/11/17 02:55:35;;;;;;;3.90;1.30;;;4.30;99.90;;;;;;4379598;32;20159;-60
2023/11/17 02:58:01;;;;;;;0.40;0.40;;;4.40;99.90;;;;;;4400693;32;20109;-59
2023/11/17 03:00:27;;;;;;;0.30;0.30;;;4.40;99.90;;;;;;4398607;32;20154;-61
2023/11/17 03:02:52;;;;;;;0.30;0.30;;;4.30;99.90;;;;;;4402570;32;20588;-59
2023/11/17 03:05:18;;;;;;;0.37;0.37;;;4.30;99.90;;;;;;4403482;32;20089;-60
2023/11/17 03:07:45;;;;;;;0.40;0.40;;;4.30;99.90;;;;;;4401940;32;20061;-59
2023/11/17 03:10:11;;;;;;;0.45;0.45;;;4.20;99.90;;;;;;4399096;32;20093;-60
2023/11/17 03:12:37;;;;;;;0.30;0.30;;;4.20;99.90;;;;;;4400863;32;20081;-60
2023/11/17 03:15:04;;;;;;;0.30;0.30;;;4.20;99.90;;;;;;4400029;32;20090;-60
2023/11/17 03:17:30;;;;;;;0.30;0.30;;;4.10;99.90;;;;;;4402108;32;20077;-60
2023/11/17 03:19:56;;;;;;;0.30;0.30;;;4.10;99.90;;;;;;4400588;32;20480;-61
2023/11/17 03:22:21;;;;;;;0.55;0.55;;;4.10;99.90;;;;;;4400518;32;20116;-58
2023/11/17 03:24:46;;;;;;;1.10;0.98;;;4.10;99.90;;;;;;4403030;32;20073;-59
2023/11/17 03:27:14;;;;;;;0.43;0.43;;;4.10;99.90;;;;;;4387448;32;20986;-61
2023/11/17 03:29:40;;;;;;;0.32;0.32;;;4.10;99.90;;;;;;4401437;32;20069;-60
2023/11/17 03:32:07;;;;;;;0.28;0.28;;;4.20;99.90;;;;;;4386621;32;20082;-60
2023/11/17 03:34:33;;;;;;;0.30;0.30;;;4.20;99.90;;;;;;4398494;32;20637;-60
2023/11/17 03:37:00;;;;;;;0.32;0.32;;;4.20;99.90;;;;;;4400087;32;20082;-62
2023/11/17 03:39:27;;;;;;;0.30;0.30;;;4.10;99.90;;;;;;4399868;32;20131;-60
2023/11/17 03:41:54;;;;;;;0.40;0.40;;;4.10;99.90;;;;;;4399318;32;20448;-61
2023/11/17 03:44:24;;;;;;;0.50;0.50;;;4.00;99.90;;;;;;4401256;32;20538;-61
2023/11/17 03:46:51;;;;;;;0.30;0.30;;;4.00;99.90;;;;;;4401776;32;20676;-61
2023/11/17 03:49:20;;;;;;;0.40;0.40;;;4.10;99.90;;;;;;4400076;32;20155;-61
2023/11/17 03:51:47;;;;;;;0.40;0.40;;;4.00;99.90;;;;;;4402729;32;20061;-61
2023/11/17 03:54:12;;;;;;;0.30;0.30;;;4.00;99.90;;;;;;4400535;32;20136;-60
2023/11/17 03:56:39;;;;;;;0.30;0.30;;;4.00;99.90;;;;;;4403027;32;20131;-59
2023/11/17 03:59:05;;;;;;;0.28;0.28;;;4.00;99.90;;;;;;4399411;32;20073;-61
2023/11/17 04:01:31;;;;;;;0.30;0.30;;;4.00;99.90;;;;;;4401363;32;20124;-61
2023/11/17 04:03:57;;;;;;;0.40;0.40;;;4.00;99.90;;;;;;4398433;32;21188;-61
2023/11/17 04:06:22;;;;;;;0.40;0.40;;;4.10;99.90;;;;;;4403591;32;20070;-62
2023/11/17 04:08:48;;;;;;;0.20;0.20;;;4.10;99.90;;;;;;4400193;32;20101;-61
2023/11/17 04:11:15;;;;;;;0.50;0.50;;;4.10;99.90;;;;;;4401461;32;20244;-61
2023/11/17 04:13:42;;;;;;;0.30;0.30;;;4.10;99.90;;;;;;4401122;32;20089;-61
2023/11/17 04:16:10;;;;;;;0.30;0.30;;;4.10;99.90;;;;;;4401893;32;20082;-61
2023/11/17 04:18:37;;;;;;;0.25;0.25;;;4.10;99.90;;;;;;4402910;32;20087;-61
2023/11/17 04:21:03;;;;;;;3.20;1.33;;;4.20;99.90;;;;;;4400606;32;20074;-60
2023/11/17 04:23:28;;;;;;;0.30;0.30;;;4.20;99.90;;;;;;4403428;32;20081;-59
2023/11/17 04:25:53;;;;;;;0.30;0.30;;;4.20;99.90;;;;;;4400256;32;20079;-60
2023/11/17 04:28:19;;;;;;;0.30;0.30;;;4.20;99.90;;;;;;4401452;32;20518;-61
2023/11/17 04:30:44;;;;;;;0.30;0.30;;;4.20;99.90;;;;;;4401230;32;20061;-59
2023/11/17 04:33:10;;;;;;;0.30;0.30;;;4.20;99.90;;;;;;4403069;32;20077;-60
2023/11/17 04:35:37;;;;;;;0.22;0.22;;;4.20;99.90;;;;;;4401054;32;20640;-60
2023/11/17 04:38:02;;;;;;;0.30;0.30;;;4.20;99.90;;;;;;4400888;32;20062;-60
2023/11/17 04:40:28;;;;;;;0.30;0.30;;;4.20;99.90;;;;;;4402850;32;20077;-59
2023/11/17 04:42:53;;;;;;;0.68;0.68;;;4.20;99.90;;;;;;4402353;32;20081;-59
2023/11/17 04:45:20;;;;;;;0.40;0.40;;;4.20;99.90;;;;;;4400352;32;20269;-60
2023/11/17 04:47:46;;;;;;;0.28;0.28;;;4.20;99.90;;;;;;4401516;32;20061;-59
2023/11/17 04:50:11;;;;;;;0.95;0.75;;;4.30;99.90;;;;;;4404076;32;20105;-59
2023/11/17 04:52:37;;;;;;;0.40;0.40;;;4.20;99.90;;;;;;4401790;32;20474;-59
2023/11/17 04:55:05;;;;;;;0.30;0.30;;;4.20;99.90;;;;;;4401951;32;20069;-60
2023/11/17 04:57:32;;;;;;;0.30;0.30;;;4.10;99.90;;;;;;4398565;32;20414;-60
2023/11/17 04:59:59;;;;;;;0.30;0.30;;;4.10;99.90;;;;;;4398153;32;20359;-59
2023/11/17 05:02:25;;;;;;;0.50;0.50;;;4.10;99.90;;;;;;4398033;32;20469;-60
2023/11/17 05:04:51;;;;;;;0.50;0.50;;;4.10;99.90;;;;;;4402131;32;20106;-59
2023/11/17 05:07:17;;;;;;;0.30;0.30;;;4.10;99.90;;;;;;4401128;32;20070;-62
2023/11/17 05:09:42;;;;;;;0.32;0.32;;;4.20;99.90;;;;;;4402224;32;20810;-60
2023/11/17 05:12:08;;;;;;;0.40;0.40;;;4.20;99.90;;;;;;4403753;32;20093;-61
2023/11/17 05:14:35;;;;;;;0.30;0.30;;;4.20;99.90;;;;;;4400520;32;20114;-59
2023/11/17 05:17:06;;;;;;;0.60;0.50;;;4.20;99.90;;;;;;4400358;32;20073;-60
2023/11/17 05:19:32;;;;;;;0.37;0.37;;;4.20;99.90;;;;;;4399595;32;20481;-61
2023/11/17 05:21:57;;;;;;;0.22;0.22;;;4.20;99.90;;;;;;4398975;32;20090;-59
2023/11/17 05:24:23;;;;;;;0.30;0.30;;;4.20;99.90;;;;;;4397988;32;20415;-61
2023/11/17 05:26:49;;;;;;;0.30;0.30;;;4.20;99.90;;;;;;4401921;32;20118;-61
2023/11/17 05:29:15;;;;;;;0.55;0.50;;;4.20;99.90;;;;;;4401538;32;20076;-61
2023/11/17 05:31:42;;;;;;;0.50;0.50;;;4.20;99.90;;;;;;4398201;32;20078;-61
2023/11/17 05:34:09;;;;;;;0.90;0.60;;;4.10;99.90;;;;;;4402461;32;20120;-61
2023/11/17 05:36:39;;;;;;;4.20;0.50;;;4.10;99.90;;;;;;4397441;32;20308;-60
2023/11/17 05:39:05;;;;;;;0.55;0.50;;;4.10;99.90;;;;;;4404233;32;20089;-61
2023/11/17 05:41:31;;;;;;;0.30;0.30;;;4.20;99.90;;;;;;4399569;32;20074;-60
2023/11/17 05:43:57;;;;;;;0.40;0.40;;;4.10;99.90;;;;;;4402705;32;20462;-61
2023/11/17 05:46:23;;;;;;;0.30;0.30;;;4.10;99.90;;;;;;4404302;32;20074;-60
2023/11/17 05:48:50;;;;;;;0.37;0.37;;;4.10;99.90;;;;;;4398722;32;20081;-61
2023/11/17 05:51:16;;;;;;;0.30;0.30;;;4.20;99.90;;;;;;4402420;32;20444;-59
2023/11/17 05:53:43;;;;;;;0.30;0.30;;;4.20;99.90;;;;;;4405133;32;20077;-61
2023/11/17 05:56:11;;;;;;;0.30;0.30;;;4.20;99.90;;;;;;4400609;32;20098;-60
2023/11/17 05:58:36;;;;;;;0.30;0.30;;;4.30;99.90;;;;;;4403709;32;20081;-61
2023/11/17 06:01:03;;;;;;;0.20;0.20;;;4.30;99.90;;;;;;4400146;32;20675;-60
2023/11/17 06:03:29;;;;;;;0.62;0.37;;;4.10;99.90;;;;;;4403763;32;20078;-61
2023/11/17 06:05:55;;;;;;;0.20;0.20;;;4.10;99.90;;;;;;4394247;32;21543;-58
2023/11/17 06:08:21;;;;;;;0.30;0.30;;;4.10;99.90;;;;;;4400758;32;20298;-61
2023/11/17 06:10:47;;;;;;;0.30;0.30;;;4.20;99.90;;;;;;4400129;32;20098;-58
2023/11/17 06:13:15;;;;;;;0.40;0.40;;;4.20;99.90;;;;;;4391062;32;21486;-60
2023/11/17 06:15:41;;;;;;;0.30;0.30;;;4.20;99.90;;;;;;4395734;32;20182;-61
2023/11/17 06:18:07;;;;;;;0.30;0.30;;;4.20;99.90;;;;;;4398409;32;20085;-60
2023/11/17 06:20:33;;;;;;;0.30;0.30;;;4.20;99.90;;;;;;4394155;32;20077;-59
2023/11/17 06:22:59;;;;;;;0.50;0.50;;;4.20;99.90;;;;;;4390041;32;20538;-58
2023/11/17 06:25:25;;;;;;;1.55;0.93;;;4.10;99.90;;;;;;4391967;32;20722;-61
2023/11/17 06:27:51;;;;;;;0.30;0.30;;;4.10;99.90;;;;;;4392352;32;20089;-59
2023/11/17 06:30:17;;;;;;;0.30;0.30;;;4.10;99.90;;;;;;4391566;32;20447;-60
2023/11/17 06:32:43;;;;;;;5.28;1.33;;;4.10;99.90;;;;;;4390869;32;20557;-58
2023/11/17 06:35:09;;;;;;;0.30;0.30;;;4.20;99.90;;;;;;4390371;32;20888;-58
2023/11/17 06:37:34;;;;;;;0.30;0.30;;;4.20;99.90;;;;;;4396849;32;20481;-60
2023/11/17 06:40:00;;;;;;;0.40;0.40;;;4.20;99.90;;;;;;4397694;32;20862;-59
2023/11/17 06:42:28;;;;;;;0.30;0.30;;;4.30;99.90;;;;;;4384766;32;20691;-59
2023/11/17 06:44:53;;;;;;;0.30;0.30;;;4.20;99.90;;;;;;4390104;32;20519;-59
2023/11/17 06:47:19;;;;;;;0.40;0.40;;;4.20;99.90;;;;;;4375143;32;20126;-61
2023/11/17 06:49:44;;;;;;;34.45;1.48;;;4.30;99.90;;;;;;4364802;32;20447;-61
2023/11/17 06:52:12;;;;;;;0.20;0.20;;;4.30;99.90;;;;;;4380591;32;20070;-59
2023/11/17 06:54:38;;;;;;;0.30;0.30;;;4.40;99.90;;;;;;4374401;32;20572;-61
2023/11/17 06:57:03;;;;;;;0.30;0.30;;;4.30;99.90;;;;;;4371797;32;20171;-60
2023/11/17 06:59:29;;;;;;;0.45;0.45;;;4.30;99.90;;;;;;4366706;32;20816;-60
2023/11/17 07:01:55;;;;;;;0.62;0.62;;;4.30;99.90;;;;;;4371911;32;20070;-61
2023/11/17 07:04:21;;;;;;;0.30;0.30;;;4.30;99.90;;;;;;4375308;32;20140;-60
2023/11/17 07:06:47;;;;;;;0.30;0.30;;;4.30;99.90;;;;;;4377872;32;20081;-59
2023/11/17 07:09:16;;;;;;;0.35;0.35;;;4.40;99.90;;;;;;4377517;32;20085;-60
2023/11/17 07:11:44;;;;;;;0.30;0.30;;;4.30;99.90;;;;;;4351480;32;20154;-61
2023/11/17 07:14:11;;;;;;;0.30;0.30;;;4.20;99.90;;;;;;4373052;32;20090;-59
2023/11/17 07:16:38;;;;;;;0.40;0.40;;;4.30;99.90;;;;;;4363781;32;20105;-61
2023/11/17 07:19:08;;;;;;;0.30;0.30;;;4.30;99.90;;;;;;4378269;32;20155;-59
2023/11/17 07:21:35;;;;;;;0.30;0.30;;;4.30;99.90;;;;;;4371899;32;20444;-61
2023/11/17 07:24:02;;;;;;;0.30;0.30;;;4.20;99.90;;;;;;4371451;32;20109;-60
2023/11/17 07:26:30;;;;;;;0.20;0.20;;;4.30;99.90;;;;;;4379450;32;20101;-58
2023/11/17 07:28:55;;;;;;;0.40;0.40;;;4.30;99.90;;;;;;4377760;32;20174;-60
2023/11/17 07:31:21;;;;;;;0.35;0.35;;;4.30;99.90;;;;;;4386670;32;20097;-60
2023/11/17 07:33:47;;;;;;;0.30;0.30;;;4.30;99.90;;;;;;4374904;32;20113;-61
2023/11/17 07:36:16;;;;;;;0.35;0.35;;;4.30;99.90;;;;;;4375302;32;20105;-61
2023/11/17 07:38:44;;;;;;;0.30;0.30;;;4.40;99.90;;;;;;4372629;32;20219;-60
2023/11/17 07:41:10;;;;;;;0.52;0.52;;;4.40;99.90;;;;;;4384256;32;20089;-61
2023/11/17 07:43:36;;;;;;;0.43;0.43;;;4.40;99.90;;;;;;4383258;32;20105;-61
2023/11/17 07:46:02;;;;;;;0.65;0.55;;;4.40;99.90;;;;;;4383204;32;20145;-61
2023/11/17 07:48:28;;;;;;;0.30;0.30;;;4.40;99.90;;;;;;4383473;32;20133;-60
2023/11/17 07:50:53;;;;;;;0.30;0.30;;;4.40;99.90;;;;;;4371555;32;20378;-60
2023/11/17 07:53:19;;;;;;;0.30;0.30;;;4.50;99.90;;;;;;4386276;32;20069;-61
2023/11/17 07:55:45;;;;;;;0.30;0.30;;;4.50;99.90;;;;;;4375300;32;20676;-61
2023/11/17 07:58:11;;;;;;;0.50;0.50;;;4.60;99.90;;;;;;4373937;32;20692;-59
2023/11/17 08:00:37;;;;;;;0.30;0.30;;;4.60;99.90;;;;;;4349020;32;20116;-61
2023/11/17 08:03:04;;;;;;;0.30;0.30;;;4.70;99.90;;;;;;4371709;32;20421;-60
2023/11/17 08:05:30;;;;;;;0.57;0.57;;;4.60;99.90;;;;;;4380835;32;20105;-60
2023/11/17 08:07:56;;;;;;;0.30;0.30;;;4.60;99.90;;;;;;4367458;32;20130;-61
2023/11/17 08:10:22;;;;;;;0.30;0.30;;;4.70;99.90;;;;;;4370642;32;20097;-60
2023/11/17 08:12:47;;;;;;;0.30;0.30;;;4.60;99.90;;;;;;4377479;32;20672;-61
2023/11/17 08:15:13;;;;;;;1.10;0.60;;;4.60;99.90;;;;;;4372631;32;20300;-60
2023/11/17 08:17:38;;;;;;;0.30;0.30;;;4.60;99.90;;;;;;4372320;32;20153;-59
2023/11/17 08:20:14;;;;;;;0.30;0.30;;;4.70;99.90;;;;;;4371959;32;20152;-59
2023/11/17 08:22:40;;;;;;;0.35;0.35;;;4.60;99.90;;;;;;4377541;32;20160;-60
2023/11/17 08:25:06;;;;;;;0.30;0.30;;;4.60;99.90;;;;;;4364282;32;20093;-59
2023/11/17 08:27:32;;;;;;;0.43;0.43;;;4.60;99.90;;;;;;4370627;32;20558;-60
2023/11/17 08:29:57;;;;;;;0.30;0.30;;;4.70;99.90;;;;;;4366650;32;20093;-60
2023/11/17 08:32:23;;;;;;;0.40;0.40;;;4.70;99.90;;;;;;4362726;32;20224;-60
2023/11/17 08:34:48;;;;;;;0.22;0.22;;;4.60;99.90;;;;;;4355282;32;20089;-59
2023/11/17 08:37:14;;;;;;;0.30;0.30;;;4.70;99.90;;;;;;4359273;32;20679;-63
2023/11/17 08:39:41;;;;;;;0.37;0.37;;;4.70;99.90;;;;;;4379663;32;20089;-61
2023/11/17 08:42:08;;;;;;;0.35;0.35;;;4.60;99.90;;;;;;4380671;32;20081;-61
2023/11/17 08:44:34;;;;;;;1.95;1.30;;;4.60;99.90;;;;;;4372306;32;20670;-60
2023/11/17 08:46:59;;;;;;;0.47;0.47;;;4.60;99.90;;;;;;4369826;32;20262;-61
2023/11/17 08:49:25;;;;;;;0.32;0.32;;;4.60;99.90;;;;;;4349158;32;20522;-59
2023/11/17 08:51:51;;;;;;;0.30;0.30;;;4.50;99.90;;;;;;4355232;32;20094;-60
2023/11/17 08:54:17;;;;;;;0.40;0.40;;;4.50;99.90;;;;;;4351290;32;20699;-60
2023/11/17 08:56:47;;;;;;;0.28;0.28;;;4.60;99.90;;;;;;4362727;32;20086;-59
2023/11/17 08:59:13;;;;;;;0.30;0.30;;;4.60;99.90;;;;;;4359694;32;20615;-59
2023/11/17 09:01:40;;;;;;;0.30;0.30;;;4.60;99.90;;;;;;4361253;32;20093;-61
2023/11/17 09:04:06;;;;;;;0.30;0.30;;;4.60;99.90;;;;;;4360355;32;20778;-61
2023/11/17 09:06:33;;;;;;;0.20;0.20;;;4.70;99.90;;;;;;4364148;32;20117;-62
2023/11/17 09:08:59;;;;;;;0.40;0.40;;;4.70;99.90;;;;;;4370883;32;21065;-61
2023/11/17 09:11:25;;;;;;;0.30;0.30;;;4.80;99.90;;;;;;4372986;32;20601;-59
2023/11/17 09:13:51;;;;;;;0.30;0.30;;;4.70;99.90;;;;;;4369590;32;20803;-61
2023/11/17 09:16:17;;;;;;;0.30;0.30;;;4.70;99.90;;;;;;4355192;32;20126;-59
2023/11/17 09:18:42;;;;;;;0.30;0.30;;;4.70;99.90;;;;;;4366084;32;20085;-61
2023/11/17 09:21:10;;;;;;;0.50;0.50;;;4.80;99.90;;;;;;4371529;32;20236;-61
2023/11/17 09:23:36;;;;;;;0.65;0.65;;;4.80;99.90;;;;;;4359713;32;20105;-60
2023/11/17 09:26:02;;;;;;;0.35;0.35;;;4.70;99.90;;;;;;4372652;32;20213;-61
2023/11/17 09:28:28;;;;;;;1.90;0.68;;;4.80;99.90;;;;;;4375887;32;20149;-60
2023/11/17 09:30:56;;;;;;;0.30;0.30;;;4.90;99.90;;;;;;4361529;32;20085;-62
2023/11/17 09:33:22;;;;;;;0.28;0.28;;;4.90;99.90;;;;;;4373428;32;20711;-59
2023/11/17 09:35:48;;;;;;;1.85;0.85;;;4.90;99.90;;;;;;4375769;32;20921;-61
2023/11/17 09:38:16;;;;;;;0.40;0.40;;;4.90;99.90;;;;;;4369988;32;20381;-61
2023/11/17 09:40:41;;;;;;;0.62;0.62;;;4.90;99.90;;;;;;4359202;32;20165;-60
2023/11/17 09:43:17;;;;;;;0.40;0.40;;;4.90;99.90;;;;;;4371264;32;20102;-60
2023/11/17 09:45:47;;;;;;;0.40;0.40;;;5.00;99.90;;;;;;4369250;32;20353;-61
2023/11/17 09:48:13;;;;;;;0.40;0.40;;;5.00;99.90;;;;;;4368802;32;20852;-60
2023/11/17 09:50:41;;;;;;;0.30;0.30;;;5.00;99.90;;;;;;4350780;32;20444;-58
2023/11/17 09:53:09;;;;;;;0.47;0.47;;;5.00;99.90;;;;;;4359737;32;20081;-61
2023/11/17 09:55:37;;;;;;;0.20;0.20;;;5.00;99.90;;;;;;4364476;32;20794;-60
2023/11/17 09:58:05;;;;;;;0.50;0.50;;;5.10;99.90;;;;;;4349022;32;20101;-60
2023/11/17 10:00:33;;;;;;;0.30;0.30;;;5.10;99.90;;;;;;4357194;32;20097;-60
2023/11/17 10:03:02;;;;;;;1.10;0.62;;;5.10;99.90;;;;;;4365909;32;20077;-61
2023/11/17 10:05:30;;;;;;;0.40;0.40;;;5.10;99.90;;;;;;4369745;32;20113;-61
2023/11/17 10:08:00;;;;;;;0.30;0.30;;;5.10;99.90;;;;;;4358690;32;20209;-61
2023/11/17 10:10:27;;;;;;;0.40;0.40;;;5.10;99.90;;;;;;4338270;32;20165;-63
2023/11/17 10:12:56;;;;;;;0.35;0.35;;;5.10;99.90;;;;;;4371791;32;20179;-61
2023/11/17 10:15:26;;;;;;;0.30;0.30;;;5.10;99.90;;;;;;4370031;32;22017;-62
2023/11/17 10:17:57;;;;;;;0.45;0.45;;;5.20;99.90;;;;;;4367481;32;20598;-60
2023/11/17 10:20:23;;;;;;;0.30;0.30;;;5.10;99.90;;;;;;4367557;32;20093;-60
2023/11/17 10:22:50;;;;;;;0.30;0.30;;;5.10;99.90;;;;;;4349825;32;20097;-62
2023/11/17 10:25:18;;;;;;;0.22;0.22;;;5.10;99.90;;;;;;4366460;32;20298;-62
2023/11/17 10:27:46;;;;;;;2.65;0.52;;;5.10;99.90;;;;;;4364356;32;20102;-63
2023/11/17 10:30:12;;;;;;;4.12;0.60;;;5.20;99.90;;;;;;4345726;32;20106;-62
2023/11/17 10:32:42;;;;;;;0.40;0.40;;;5.30;99.90;;;;;;4376733;32;20090;-60
2023/11/17 10:35:16;;;;;;;0.30;0.30;;;5.30;99.90;;;;;;4378956;32;20126;-62
2023/11/17 10:37:44;;;;;;;4.40;1.23;;;5.40;99.90;;;;;;4350451;32;20214;-62
2023/11/17 10:40:10;;;;;;;0.30;0.30;;;5.30;99.90;;;;;;4369747;32;20125;-62
2023/11/17 10:42:35;;;;;;;0.30;0.30;;;5.40;99.90;;;;;;4356567;32;20085;-61
2023/11/17 10:45:16;;;;;;;0.75;0.75;;;5.40;99.90;;;;;;4359118;32;20101;-60
2023/11/17 10:47:42;;;;;;;;;;;5.40;99.90;;;;;;4371558;32;20175;-62
2023/11/17 10:50:08;;;;;;;0.30;0.30;;;5.40;99.90;;;;;;4366898;32;20010;-62
2023/11/17 10:52:34;;;;;;;0.30;0.30;;;5.50;99.90;;;;;;4363201;32;20082;-62
2023/11/17 10:54:59;;;;;;;0.73;0.70;;;5.50;99.90;;;;;;4369108;32;21209;-61
2023/11/17 10:57:26;;;;;;;0.30;0.30;;;5.50;99.90;;;;;;4369498;32;20098;-61
2023/11/17 10:59:52;;;;;;;0.30;0.30;;;5.50;99.90;;;;;;4372909;32;21710;-62
2023/11/17 11:02:19;;;;;;;0.28;0.28;;;5.40;99.90;;;;;;4373886;32;20130;-62
2023/11/17 11:04:46;;;;;;;0.30;0.30;;;5.40;99.90;;;;;;4372488;32;21450;-61
2023/11/17 11:07:14;;;;;;;0.30;0.30;;;5.50;99.90;;;;;;4370994;32;20335;-61
2023/11/17 11:09:40;;;;;;;0.35;0.35;;;5.50;99.90;;;;;;4381519;32;20094;-59
2023/11/17 11:12:12;;;;;;;0.30;0.30;;;5.60;99.90;;;;;;4374944;32;20132;-60
2023/11/17 11:14:45;;;;;;;0.20;0.20;;;5.60;99.90;;;;;;4376419;32;20140;-60
2023/11/17 11:17:11;;;;;;;0.30;0.30;;;5.50;99.90;;;;;;4373100;32;20592;-61
2023/11/17 11:19:38;;;;;;;0.30;0.30;;;5.50;99.90;;;;;;4375579;32;21169;-61
2023/11/17 11:22:07;;;;;;;0.30;0.30;;;5.50;99.90;;;;;;4376393;32;20815;-61
2023/11/17 11:24:34;;;;;;;0.30;0.30;;;5.50;99.90;;;;;;4360170;32;20589;-59
2023/11/17 11:27:02;;;;;;;0.30;0.30;;;5.50;99.90;;;;;;4365859;32;20093;-59
2023/11/17 11:29:29;;;;;;;0.20;0.20;;;5.50;99.90;;;;;;4375470;32;20565;-61
2023/11/17 11:31:56;;;;;;;0.30;0.30;;;5.50;99.90;;;;;;4374677;32;20593;-60
2023/11/17 11:34:21;;;;;;;0.30;0.30;;;5.50;99.90;;;;;;4391900;32;21264;-61
2023/11/17 11:36:48;;;;;;;0.40;0.40;;;5.50;99.90;;;;;;4382914;32;20165;-60
2023/11/17 11:39:14;;;;;;;8.20;1.30;;;5.50;99.90;;;;;;4392548;32;20303;-60
2023/11/17 11:41:41;;;;;;;0.40;0.40;;;5.50;99.90;;;;;;4382969;32;20136;-62
2023/11/17 11:44:09;;;;;;;0.80;0.50;;;5.60;99.90;;;;;;4390519;32;20137;-62
2023/11/17 11:46:37;;;;;;;0.32;0.32;;;5.50;99.90;;;;;;4388235;32;20089;-62
2023/11/17 11:51:29;;;;;;;0.40;0.40;;;5.50;99.90;;;;;;4409811;32;87854;-58
2023/11/17 11:53:57;;;;;;;0.30;0.30;;;5.50;99.90;;;;;;4399060;32;21001;-60
2023/11/17 11:56:32;;;;;;;0.40;0.40;;;5.60;99.90;;;;;;4411448;32;20431;-61
2023/11/17 11:58:58;;;;;;;0.30;0.30;;;5.60;99.90;;;;;;4403772;32;20077;-61
2023/11/17 12:01:31;;;;;;;0.30;0.30;;;5.60;99.90;;;;;;4389134;32;20161;-62
2023/11/17 12:03:59;;;;;;;0.32;0.32;;;5.50;99.90;;;;;;4403037;32;20100;-60
2023/11/17 12:06:27;;;;;;;0.30;0.30;;;5.50;99.90;;;;;;4409407;32;20096;-59
2023/11/17 12:08:59;;;;;;;0.40;0.40;;;5.60;99.90;;;;;;4409749;32;20116;-59
2023/11/17 12:11:46;;;;;;;0.25;0.25;;;5.60;99.90;;;;;;4398591;32;20549;-60
2023/11/17 12:14:13;;;;;;;0.30;0.30;;;5.60;99.90;;;;;;4411604;32;20089;-60
2023/11/17 12:16:41;;;;;;;0.30;0.30;;;5.70;99.90;;;;;;4423114;32;20644;-61
2023/11/17 12:19:08;;;;;;;0.30;0.30;;;5.60;99.90;;;;;;4410362;32;20085;-58
2023/11/17 12:21:38;;;;;;;0.40;0.40;;;5.70;99.90;;;;;;4404380;32;20112;-58
2023/11/17 12:24:07;;;;;;;0.35;0.35;;;5.80;99.90;;;;;;4414795;32;20081;-61
2023/11/17 12:26:37;;;;;;;0.30;0.30;;;5.80;99.90;;;;;;4413285;32;20088;-59
2023/11/17 12:29:04;;;;;;;0.30;0.30;;;5.70;99.90;;;;;;4410335;32;20156;-60
2023/11/17 12:31:30;;;;;;;0.20;0.20;;;5.70;99.90;;;;;;4397721;32;20125;-60
2023/11/17 12:33:55;;;;;;;0.30;0.30;;;5.70;99.90;;;;;;4407775;32;20129;-61
2023/11/17 12:36:23;;;;;;;0.30;0.30;;;5.70;99.90;;;;;;4406178;32;20141;-60
2023/11/17 12:38:52;;;;;;;0.20;0.20;;;5.70;99.90;;;;;;4412655;32;20139;-61
2023/11/17 12:41:21;;;;;;;0.20;0.20;;;5.70;99.90;;;;;;4417410;32;20094;-62
2023/11/17 12:43:49;;;;;;;0.30;0.30;;;5.80;99.90;;;;;;4397350;32;20118;-59
2023/11/17 12:46:15;;;;;;;0.30;0.30;;;5.70;99.90;;;;;;4406099;32;20089;-60
2023/11/17 12:48:43;;;;;;;0.20;0.20;;;5.80;99.90;;;;;;4416739;32;20477;-58
2023/11/17 12:51:09;;;;;;;1.17;1.05;;;5.80;99.90;;;;;;4419206;32;20084;-60
2023/11/17 12:53:41;;;;;;;0.20;0.20;;;5.80;99.90;;;;;;4420555;32;20100;-60
2023/11/17 12:56:08;;;;;;;0.28;0.28;;;5.80;99.90;;;;;;4423679;32;20073;-60
2023/11/17 12:58:34;;;;;;;1.08;0.47;;;5.70;99.90;;;;;;4405317;32;20187;-58
2023/11/17 13:01:12;;;;;;;0.30;0.30;;;5.70;99.90;;;;;;4419925;32;20175;-61